Kirkby-in-Ashfield, United Kingdom
Current Conditions -  °F | °C
As of 2:20 PM on Monday 26 Jan 2015 (Local Time) from EGNX Reporting Station
Broken Clouds Broken Clouds  
Wind Chill: 38°   Ceiling: 3500
Heat Index: 45°   Visibility: 6mi
Dew Point: 36°   Wind: 14mph
Humidity: 71%   Direction: 300°WNW
Pressure: 30.21"   Gusts: NA
Location:  53.1°N, 1.26°W
Report Text: EGNX 261420Z 30012KT 9999 SCT024 BKN035 07/02 Q1023
Loading
Personal Weather Stations






























Interactive Weather Map New forecast layout! Learn more

10-Day Weather Forecast

Advertisements
Track Severe Weather on mobile